Time;durP1;ratioP1;P1;durP2;ratioP2;P2;SDS_P1;SDS_P2;PMS_P1;PMS_P2;Temp;Humidity;BMP_temperature;BMP_pressure;BME280_temperature;BME280_humidity;BME280_pressure;Samples;Min_cycle;Max_cycle;Signal;HPM_P1;HPM_P2
2021/03/25 00:01:24;;;;;;;;;;;13.80;41.10;;;;;;4949160;28;78774;-68
2021/03/25 00:03:50;;;;;;;;;;;13.70;41.10;;;;;;4949201;28;76464;-68
2021/03/25 00:06:16;;;;;;;;;;;13.60;42.50;;;;;;4951276;28;75100;-69
2021/03/25 00:08:42;;;;;;;;;;;13.40;42.40;;;;;;4950909;28;75150;-67
2021/03/25 00:11:08;;;;;;;;;;;13.30;42.20;;;;;;4951083;28;75388;-70
2021/03/25 00:13:34;;;;;;;;;;;13.20;42.30;;;;;;4951035;28;75163;-70
2021/03/25 00:15:59;;;;;;;;;;;13.10;42.30;;;;;;4949228;28;75274;-69
2021/03/25 00:18:25;;;;;;;;;;;13.00;42.20;;;;;;4951265;28;75395;-68
2021/03/25 00:20:50;;;;;;;;;;;13.00;42.20;;;;;;4949454;28;74632;-70
2021/03/25 00:23:17;;;;;;;;;;;12.90;42.50;;;;;;4950985;28;75239;-70
2021/03/25 00:25:43;;;;;;;;;;;12.90;43.20;;;;;;4949288;28;77503;-70
2021/03/25 00:28:10;;;;;;;;;;;12.80;45.10;;;;;;4950934;28;74408;-70
2021/03/25 00:30:36;;;;;;;;;;;12.60;44.30;;;;;;4950624;28;75028;-70
2021/03/25 00:33:03;;;;;;;;;;;12.50;44.70;;;;;;4950561;28;75141;-70
2021/03/25 00:35:29;;;;;;;;;;;12.40;46.10;;;;;;4932843;28;75414;-67
2021/03/25 00:37:55;;;;;;;;;;;12.20;44.50;;;;;;4948778;28;77860;-65
2021/03/25 00:40:20;;;;;;;;;;;12.30;44.10;;;;;;4951200;28;74495;-69
2021/03/25 00:42:47;;;;;;;;;;;12.20;44.70;;;;;;4948977;28;77745;-68
2021/03/25 00:45:21;;;;;;;;;;;12.20;45.50;;;;;;4949100;28;75386;-67
2021/03/25 00:47:46;;;;;;;;;;;12.20;45.30;;;;;;4950564;28;75189;-68
2021/03/25 00:50:17;;;;;;;;;;;12.10;46.20;;;;;;4948712;28;77711;-66
2021/03/25 00:52:42;;;;;;;;;;;12.00;44.60;;;;;;4950769;28;74395;-70
2021/03/25 00:55:08;;;;;;;;;;;12.00;45.60;;;;;;4948511;28;77250;-69
2021/03/25 00:57:34;;;;;;;;;;;11.90;46.00;;;;;;4948490;28;77446;-67
2021/03/25 00:59:59;;;;;;;;;;;11.80;47.00;;;;;;4948678;28;75457;-70
2021/03/25 01:02:25;;;;;;;;;;;11.70;48.00;;;;;;4950156;28;75628;-69
2021/03/25 01:04:50;;;;;;;;;;;11.50;48.80;;;;;;4950806;28;74390;-69
2021/03/25 01:07:24;;;;;;;;;;;11.40;49.40;;;;;;4949987;28;75253;-69
2021/03/25 01:09:50;;;;;;;;;;;11.30;49.10;;;;;;4950394;28;75243;-69
2021/03/25 01:12:15;;;;;;;;;;;11.20;49.10;;;;;;4948363;28;78326;-69
2021/03/25 01:14:41;;;;;;;;;;;11.20;49.50;;;;;;4950034;28;75085;-68
2021/03/25 01:17:06;;;;;;;;;;;11.10;50.40;;;;;;4950091;28;75164;-68
2021/03/25 01:19:32;;;;;;;;;;;11.10;50.10;;;;;;4950108;28;75574;-69
2021/03/25 01:21:58;;;;;;;;;;;11.00;50.20;;;;;;4950036;28;75216;-68
2021/03/25 01:24:24;;;;;;;;;;;11.00;49.90;;;;;;4949812;28;76324;-70
2021/03/25 01:26:50;;;;;;;;;;;11.10;49.30;;;;;;4950336;28;74499;-70
2021/03/25 01:29:16;;;;;;;;;;;11.10;48.20;;;;;;4949592;28;75174;-66
2021/03/25 01:31:42;;;;;;;;;;;11.10;48.20;;;;;;4950072;28;75058;-69
2021/03/25 01:34:09;;;;;;;;;;;11.10;47.80;;;;;;4950381;28;74367;-68
2021/03/25 01:36:34;;;;;;;;;;;11.20;48.50;;;;;;4948344;28;74696;-70
2021/03/25 01:39:00;;;;;;;;;;;11.20;48.00;;;;;;4949644;28;74988;-68
2021/03/25 01:41:29;;;;;;;;;;;11.10;47.70;;;;;;4947672;28;76830;-68
2021/03/25 01:43:55;;;;;;;;;;;11.10;47.80;;;;;;4949692;28;75454;-69
2021/03/25 01:46:20;;;;;;;;;;;11.10;47.70;;;;;;4949737;28;74513;-69
2021/03/25 01:48:48;;;;;;;;;;;11.10;47.70;;;;;;4948215;28;75490;-69
2021/03/25 01:51:53;;;;;;;;;;;11.20;47.70;;;;;;4949653;28;75314;-69
2021/03/25 01:54:18;;;;;;;;;;;11.20;47.50;;;;;;4966786;28;75274;-68
2021/03/25 01:56:46;;;;;;;;;;;11.10;48.00;;;;;;4966641;28;75442;-71
2021/03/25 01:59:12;;;;;;;;;;;11.10;48.20;;;;;;4946729;28;76364;-68
2021/03/25 02:01:43;;;;;;;;;;;11.00;48.30;;;;;;4947555;28;76231;-69
2021/03/25 02:04:19;;;;;;;;;;;10.90;48.20;;;;;;4949459;28;74433;-69
2021/03/25 02:07:07;;;;;;;;;;;10.90;49.40;;;;;;4949234;28;74964;-70
2021/03/25 02:09:39;;;;;;;;;;;10.80;49.50;;;;;;4949247;28;75192;-68
2021/03/25 02:12:23;;;;;;;;;;;10.70;49.50;;;;;;4949665;28;74383;-67
2021/03/25 02:15:10;;;;;;;;;;;10.70;49.70;;;;;;4950163;28;75737;-68
2021/03/25 02:17:45;;;;;;;;;;;10.60;49.80;;;;;;4950756;28;76217;-69
2021/03/25 02:20:29;;;;;;;;;;;10.50;49.40;;;;;;4950468;28;77661;-69
2021/03/25 02:23:07;;;;;;;;;;;10.60;49.20;;;;;;4952242;28;75204;-69
2021/03/25 02:25:51;;;;;;;;;;;10.50;48.80;;;;;;4952143;28;75452;-68
2021/03/25 02:28:24;;;;;;;;;;;10.60;48.90;;;;;;4952027;28;75748;-69
2021/03/25 02:31:02;;;;;;;;;;;10.60;48.70;;;;;;4952204;28;75214;-70
2021/03/25 02:33:28;;;;;;;;;;;10.70;48.80;;;;;;4951970;28;75246;-68
2021/03/25 02:35:57;;;;;;;;;;;10.60;48.90;;;;;;4953220;28;74408;-69
2021/03/25 02:38:41;;;;;;;;;;;10.50;49.10;;;;;;4951838;28;74490;-68
2021/03/25 02:41:22;;;;;;;;;;;10.50;50.10;;;;;;4951974;28;75080;-67
2021/03/25 02:43:57;;;;;;;;;;;10.40;51.00;;;;;;4950164;28;78018;-69
2021/03/25 02:46:28;;;;;;;;;;;10.20;52.50;;;;;;4951714;28;75223;-69
2021/03/25 02:48:54;;;;;;;;;;;10.00;51.80;;;;;;4952061;28;74598;-68
2021/03/25 02:51:32;;;;;;;;;;;10.00;50.90;;;;;;4950174;28;77412;-66
2021/03/25 02:53:58;;;;;;;;;;;10.00;51.00;;;;;;4951994;28;74526;-69
2021/03/25 02:56:26;;;;;;;;;;;10.00;51.00;;;;;;4951375;28;74506;-69
2021/03/25 02:59:13;;;;;;;;;;;10.00;50.70;;;;;;4951424;28;75143;-70
2021/03/25 03:01:41;;;;;;;;;;;10.10;50.60;;;;;;4951317;28;75406;-68
2021/03/25 03:04:09;;;;;;;;;;;10.10;50.40;;;;;;4950152;28;77649;-70
2021/03/25 03:06:39;;;;;;;;;;;10.10;50.70;;;;;;4951763;28;74491;-70
2021/03/25 03:09:07;;;;;;;;;;;10.10;50.40;;;;;;4951561;28;76463;-69
2021/03/25 03:11:34;;;;;;;;;;;10.10;50.60;;;;;;4951209;28;77312;-68
2021/03/25 03:14:12;;;;;;;;;;;10.10;51.00;;;;;;4951263;28;76392;-70
2021/03/25 03:16:44;;;;;;;;;;;10.00;51.40;;;;;;4951386;28;76593;-70
2021/03/25 03:19:21;;;;;;;;;;;10.00;51.50;;;;;;4951501;28;76759;-70
2021/03/25 03:21:50;;;;;;;;;;;9.90;52.20;;;;;;4951591;28;74992;-69
2021/03/25 03:24:16;;;;;;;;;;;9.80;51.80;;;;;;4951737;28;74428;-70
2021/03/25 03:26:50;;;;;;;;;;;9.80;52.50;;;;;;4949862;28;74805;-68
2021/03/25 03:29:17;;;;;;;;;;;9.70;51.80;;;;;;4951517;28;75019;-65
2021/03/25 03:31:45;;;;;;;;;;;9.70;51.60;;;;;;4951771;28;74645;-68
2021/03/25 03:34:19;;;;;;;;;;;9.80;51.30;;;;;;4951644;28;75135;-69
2021/03/25 03:36:46;;;;;;;;;;;9.80;51.50;;;;;;4949650;28;76057;-65
2021/03/25 03:39:15;;;;;;;;;;;9.80;51.50;;;;;;4951386;28;75428;-69
2021/03/25 03:41:41;;;;;;;;;;;9.80;51.90;;;;;;4949270;28;78128;-65
2021/03/25 03:44:08;;;;;;;;;;;9.80;52.10;;;;;;4951262;28;75288;-67
2021/03/25 03:46:35;;;;;;;;;;;9.70;52.60;;;;;;4951157;28;75443;-65
2021/03/25 03:49:16;;;;;;;;;;;9.60;52.10;;;;;;4949589;28;76856;-66
2021/03/25 03:51:45;;;;;;;;;;;9.60;52.00;;;;;;4951106;28;74720;-66
2021/03/25 03:54:10;;;;;;;;;;;9.60;51.70;;;;;;4951050;28;75323;-68
2021/03/25 03:56:48;;;;;;;;;;;9.60;51.80;;;;;;4949677;28;77098;-68
2021/03/25 03:59:18;;;;;;;;;;;9.60;51.50;;;;;;4949361;28;76608;-70
2021/03/25 04:01:47;;;;;;;;;;;9.60;51.50;;;;;;4949384;28;76486;-69
2021/03/25 04:04:35;;;;;;;;;;;9.60;51.40;;;;;;4949851;28;77217;-68
2021/03/25 04:07:04;;;;;;;;;;;9.70;51.30;;;;;;4949243;28;75485;-69
2021/03/25 04:09:36;;;;;;;;;;;9.60;51.30;;;;;;4949492;28;75382;-69
2021/03/25 04:12:07;;;;;;;;;;;9.70;51.30;;;;;;4950767;28;75165;-68
2021/03/25 04:14:45;;;;;;;;;;;9.70;51.40;;;;;;4949143;28;77120;-68
2021/03/25 04:17:13;;;;;;;;;;;9.70;51.40;;;;;;4950509;28;75084;-68
2021/03/25 04:19:43;;;;;;;;;;;9.70;51.40;;;;;;4951044;28;75263;-68
2021/03/25 04:22:16;;;;;;;;;;;9.70;51.40;;;;;;4950737;28;75462;-69
2021/03/25 04:24:57;;;;;;;;;;;9.70;51.40;;;;;;4950746;28;75386;-69
2021/03/25 04:27:25;;;;;;;;;;;9.60;51.50;;;;;;4949197;28;75653;-69
2021/03/25 04:30:24;;;;;;;;;;;9.60;51.60;;;;;;4950827;28;75175;-69
2021/03/25 04:32:50;;;;;;;;;;;9.60;51.70;;;;;;4948017;28;77389;-69
2021/03/25 04:35:16;;;;;;;;;;;9.70;51.70;;;;;;4950576;28;75185;-69
2021/03/25 04:37:42;;;;;;;;;;;9.70;51.80;;;;;;4949542;28;75198;-69
2021/03/25 04:40:18;;;;;;;;;;;9.60;52.60;;;;;;4948956;28;75584;-69
2021/03/25 04:42:44;;;;;;;;;;;9.50;53.50;;;;;;4950805;28;74404;-69
2021/03/25 04:45:39;;;;;;;;;;;9.40;54.00;;;;;;4950302;28;75194;-69
2021/03/25 04:48:06;;;;;;;;;;;9.30;53.20;;;;;;4953437;28;75244;-68
2021/03/25 04:50:36;;;;;;;;;;;9.20;54.20;;;;;;4950016;28;75233;-70
2021/03/25 04:53:03;;;;;;;;;;;9.10;54.70;;;;;;4951016;28;74361;-68
2021/03/25 04:55:31;;;;;;;;;;;8.90;55.10;;;;;;4950853;28;74435;-70
2021/03/25 04:58:04;;;;;;;;;;;8.70;54.80;;;;;;4950349;28;75558;-71
2021/03/25 05:00:31;;;;;;;;;;;8.60;55.20;;;;;;4950422;28;75142;-69
2021/03/25 05:03:00;;;;;;;;;;;8.60;54.90;;;;;;4950249;28;74430;-69
2021/03/25 05:05:26;;;;;;;;;;;8.50;54.70;;;;;;4950390;28;74472;-69
2021/03/25 05:08:18;;;;;;;;;;;8.40;55.90;;;;;;4950376;28;74419;-67
2021/03/25 05:10:52;;;;;;;;;;;8.30;55.70;;;;;;4950739;28;74981;-70
2021/03/25 05:13:23;;;;;;;;;;;8.20;56.00;;;;;;4950190;28;75032;-69
2021/03/25 05:15:53;;;;;;;;;;;8.20;55.30;;;;;;4948977;28;77943;-67
2021/03/25 05:18:24;;;;;;;;;;;8.30;55.60;;;;;;4950242;28;75456;-64
2021/03/25 05:20:57;;;;;;;;;;;8.20;56.10;;;;;;4949711;28;74547;-68
2021/03/25 05:23:28;;;;;;;;;;;8.10;56.90;;;;;;4948486;28;78254;-68
2021/03/25 05:25:57;;;;;;;;;;;8.10;56.90;;;;;;4950167;28;74449;-68
2021/03/25 05:28:36;;;;;;;;;;;8.00;56.30;;;;;;4950091;28;74754;-68
2021/03/25 05:31:04;;;;;;;;;;;8.10;56.10;;;;;;4949590;28;76178;-68
2021/03/25 05:33:31;;;;;;;;;;;8.20;55.70;;;;;;4949748;28;76220;-69
2021/03/25 05:36:01;;;;;;;;;;;8.10;56.60;;;;;;4949935;28;75252;-69
2021/03/25 05:38:27;;;;;;;;;;;8.00;56.40;;;;;;4950099;28;74379;-68
2021/03/25 05:41:08;;;;;;;;;;;8.00;57.10;;;;;;4950004;28;75182;-67
2021/03/25 05:43:53;;;;;;;;;;;7.90;56.30;;;;;;4949527;28;74470;-69
2021/03/25 05:46:50;;;;;;;;;;;7.90;56.00;;;;;;4950027;28;75061;-70
2021/03/25 05:49:27;;;;;;;;;;;7.90;55.80;;;;;;4959410;28;75017;-70
2021/03/25 05:52:01;;;;;;;;;;;8.00;55.90;;;;;;4951309;28;77951;-66
2021/03/25 05:54:36;;;;;;;;;;;8.00;55.70;;;;;;4952648;28;75215;-67
2021/03/25 05:57:20;;;;;;;;;;;7.90;55.40;;;;;;4952330;28;75256;-64
2021/03/25 06:00:09;;;;;;;;;;;7.90;56.30;;;;;;4950709;28;76420;-63
2021/03/25 06:02:52;;;;;;;;;;;7.90;55.90;;;;;;4954284;28;75376;-67
2021/03/25 06:05:18;;;;;;;;;;;7.90;56.00;;;;;;4951221;28;75475;-66
2021/03/25 06:07:43;;;;;;;;;;;7.90;55.90;;;;;;4952499;28;75074;-64
2021/03/25 06:10:21;;;;;;;;;;;7.90;55.70;;;;;;4951110;28;76451;-66
2021/03/25 06:13:05;;;;;;;;;;;7.90;55.70;;;;;;4952800;28;75052;-65
2021/03/25 06:15:34;;;;;;;;;;;7.90;55.20;;;;;;4951406;28;76107;-66
2021/03/25 06:18:14;;;;;;;;;;;7.90;55.80;;;;;;4950796;28;78475;-63
2021/03/25 06:20:59;;;;;;;;;;;7.90;56.50;;;;;;4952375;28;75110;-62
2021/03/25 06:23:30;;;;;;;;;;;7.90;57.20;;;;;;4950725;28;77201;-66
2021/03/25 06:26:03;;;;;;;;;;;7.80;56.50;;;;;;4952452;28;75700;-67
2021/03/25 06:28:31;;;;;;;;;;;7.80;56.70;;;;;;4952364;28;75043;-71
2021/03/25 06:31:09;;;;;;;;;;;7.80;56.70;;;;;;4950871;28;74985;-71
2021/03/25 06:33:40;;;;;;;;;;;7.80;56.30;;;;;;4951959;28;75445;-74
2021/03/25 06:36:10;;;;;;;;;;;7.90;55.80;;;;;;4953176;28;74425;-69
2021/03/25 06:38:40;;;;;;;;;;;8.00;55.60;;;;;;4950983;28;77213;-72
2021/03/25 06:41:14;;;;;;;;;;;8.00;55.30;;;;;;4952464;28;75264;-65
2021/03/25 06:43:53;;;;;;;;;;;8.10;55.10;;;;;;4952782;28;75268;-64
2021/03/25 06:46:22;;;;;;;;;;;8.20;55.00;;;;;;4950475;28;77410;-64
2021/03/25 06:48:56;;;;;;;;;;;8.40;54.80;;;;;;4952221;28;75842;-62
2021/03/25 06:51:27;;;;;;;;;;;8.50;54.50;;;;;;4952013;28;75218;-62
2021/03/25 06:54:12;;;;;;;;;;;8.50;54.30;;;;;;4952215;28;75499;-63
2021/03/25 06:56:48;;;;;;;;;;;8.60;54.10;;;;;;4951747;28;75357;-64
2021/03/25 06:59:34;;;;;;;;;;;8.70;53.90;;;;;;4952350;28;75081;-62
2021/03/25 07:02:11;;;;;;;;;;;8.80;53.80;;;;;;4951027;28;75271;-63
2021/03/25 07:04:39;;;;;;;;;;;8.90;53.60;;;;;;4950337;28;77180;-63
2021/03/25 07:07:07;;;;;;;;;;;8.90;53.50;;;;;;4951728;28;75234;-64
2021/03/25 07:09:37;;;;;;;;;;;9.00;53.40;;;;;;4951826;28;74625;-64
2021/03/25 07:12:10;;;;;;;;;;;9.10;53.10;;;;;;4950070;28;75380;-63
2021/03/25 07:14:41;;;;;;;;;;;9.20;52.80;;;;;;4951556;28;75191;-66
2021/03/25 07:17:09;;;;;;;;;;;9.20;52.90;;;;;;4951587;28;75216;-64
2021/03/25 07:19:36;;;;;;;;;;;9.20;53.10;;;;;;4952094;28;74449;-64
2021/03/25 07:22:19;;;;;;;;;;;9.20;52.90;;;;;;4952015;28;75093;-64
2021/03/25 07:24:45;;;;;;;;;;;9.30;53.20;;;;;;4951950;28;74686;-64
2021/03/25 07:27:16;;;;;;;;;;;9.30;52.80;;;;;;4949418;28;74548;-61
2021/03/25 07:29:43;;;;;;;;;;;9.30;52.70;;;;;;4950464;28;76892;-65
2021/03/25 07:32:09;;;;;;;;;;;9.40;52.40;;;;;;4951539;28;75297;-63
2021/03/25 07:34:41;;;;;;;;;;;9.40;52.30;;;;;;4949990;28;75681;-64
2021/03/25 07:37:07;;;;;;;;;;;9.50;52.30;;;;;;4951301;28;74615;-66
2021/03/25 07:39:35;;;;;;;;;;;9.60;52.00;;;;;;4951123;28;75126;-62
2021/03/25 07:42:03;;;;;;;;;;;9.80;51.90;;;;;;4951320;28;75161;-66
2021/03/25 07:44:31;;;;;;;;;;;9.90;51.60;;;;;;4951142;28;75158;-64
2021/03/25 07:47:02;;;;;;;;;;;10.10;51.30;;;;;;4949670;28;78567;-63
2021/03/25 07:49:30;;;;;;;;;;;10.20;50.90;;;;;;4951230;28;75245;-67
2021/03/25 07:52:05;;;;;;;;;;;10.30;50.90;;;;;;4951555;28;74422;-63
2021/03/25 07:54:38;;;;;;;;;;;10.40;50.40;;;;;;4950967;28;75476;-64
2021/03/25 07:57:06;;;;;;;;;;;10.50;50.30;;;;;;4950609;28;75350;-63
2021/03/25 07:59:51;;;;;;;;;;;10.70;50.10;;;;;;4951207;28;74422;-65
2021/03/25 08:02:19;;;;;;;;;;;10.80;49.70;;;;;;4950834;28;75783;-65
2021/03/25 08:04:45;;;;;;;;;;;10.90;49.50;;;;;;4950945;28;75333;-65
2021/03/25 08:07:10;;;;;;;;;;;10.90;49.40;;;;;;4950835;28;74480;-66
2021/03/25 08:09:51;;;;;;;;;;;11.10;49.20;;;;;;4951073;28;75201;-64
2021/03/25 08:12:25;;;;;;;;;;;11.20;49.20;;;;;;4949820;28;74422;-65
2021/03/25 08:15:02;;;;;;;;;;;11.40;49.10;;;;;;4950595;28;75288;-63
2021/03/25 08:17:34;;;;;;;;;;;11.50;49.00;;;;;;4950743;28;74481;-64
2021/03/25 08:20:03;;;;;;;;;;;11.60;48.60;;;;;;4950785;28;74924;-63
2021/03/25 08:22:47;;;;;;;;;;;11.60;48.50;;;;;;4949362;28;77880;-67
2021/03/25 08:25:32;;;;;;;;;;;11.70;48.40;;;;;;4950909;28;74490;-63
2021/03/25 08:28:03;;;;;;;;;;;11.90;48.00;;;;;;4950842;28;76314;-64
2021/03/25 08:30:32;;;;;;;;;;;11.90;48.00;;;;;;4950490;28;75219;-68
2021/03/25 08:33:10;;;;;;;;;;;12.00;47.90;;;;;;4950798;28;74689;-63
2021/03/25 08:35:58;;;;;;;;;;;12.10;47.70;;;;;;4950751;28;75166;-64
2021/03/25 08:38:33;;;;;;;;;;;12.30;47.60;;;;;;4950813;28;75103;-63
2021/03/25 08:41:00;;;;;;;;;;;12.40;47.40;;;;;;4950391;28;75469;-64
2021/03/25 08:43:32;;;;;;;;;;;12.40;47.30;;;;;;4950866;28;74508;-64
2021/03/25 08:46:02;;;;;;;;;;;12.50;46.90;;;;;;4950519;28;75346;-64
2021/03/25 08:48:40;;;;;;;;;;;12.70;46.80;;;;;;4948910;28;76512;-65
2021/03/25 08:51:09;;;;;;;;;;;12.80;46.60;;;;;;4950702;28;75217;-63
2021/03/25 08:53:39;;;;;;;;;;;12.90;46.30;;;;;;4950501;28;75230;-65
2021/03/25 08:56:13;;;;;;;;;;;13.00;46.20;;;;;;4950375;28;75226;-65
2021/03/25 08:58:40;;;;;;;;;;;13.00;45.80;;;;;;4950045;28;75236;-70
2021/03/25 09:01:14;;;;;;;;;;;13.20;45.90;;;;;;4950380;28;75087;-68
2021/03/25 09:03:43;;;;;;;;;;;13.30;45.30;;;;;;4950147;28;75654;-66
2021/03/25 09:06:19;;;;;;;;;;;13.40;45.60;;;;;;4950443;28;75190;-69
2021/03/25 09:08:46;;;;;;;;;;;13.50;45.10;;;;;;4948728;28;76593;-69
2021/03/25 09:11:16;;;;;;;;;;;13.70;44.90;;;;;;4950136;28;75238;-63
2021/03/25 09:13:46;;;;;;;;;;;13.80;44.60;;;;;;4950207;28;75114;-64
2021/03/25 09:16:18;;;;;;;;;;;13.90;44.00;;;;;;4948319;28;77626;-69
2021/03/25 09:18:45;;;;;;;;;;;14.00;44.00;;;;;;4950607;28;74399;-66
2021/03/25 09:21:18;;;;;;;;;;;14.10;43.60;;;;;;4949730;28;76507;-70
2021/03/25 09:24:04;;;;;;;;;;;14.40;43.90;;;;;;4950537;28;77453;-68
2021/03/25 09:26:29;;;;;;;;;;;14.60;43.90;;;;;;4952416;28;75265;-69
2021/03/25 09:29:06;;;;;;;;;;;14.90;43.00;;;;;;4953175;28;74469;-68
2021/03/25 09:31:34;;;;;;;;;;;15.20;42.80;;;;;;4951281;28;77178;-65
2021/03/25 09:34:00;;;;;;;;;;;15.40;42.10;;;;;;4953044;28;75483;-67
2021/03/25 09:36:32;;;;;;;;;;;15.70;41.80;;;;;;4953252;28;74447;-69
2021/03/25 09:38:57;;;;;;;;;;;15.90;41.60;;;;;;4952889;28;74896;-66
2021/03/25 09:41:28;;;;;;;;;;;16.10;41.10;;;;;;4952614;28;75202;-63
2021/03/25 09:44:15;;;;;;;;;;;16.30;40.70;;;;;;4952546;28;75235;-65
2021/03/25 09:46:41;;;;;;;;;;;16.60;40.30;;;;;;4953008;28;74466;-71
2021/03/25 09:49:19;;;;;;;;;;;16.80;40.10;;;;;;4952488;28;75062;-67
2021/03/25 09:51:48;;;;;;;;;;;17.00;39.70;;;;;;4952818;28;74981;-70
2021/03/25 09:54:27;;;;;;;;;;;17.20;39.50;;;;;;4952872;28;75123;-71
2021/03/25 09:57:12;;;;;;;;;;;17.40;38.50;;;;;;4952601;28;75063;-69
2021/03/25 09:59:48;;;;;;;;;;;17.50;38.60;;;;;;4952671;28;75162;-69
2021/03/25 10:02:13;;;;;;;;;;;17.50;37.90;;;;;;4950526;28;77315;-63
2021/03/25 10:04:39;;;;;;;;;;;17.70;37.40;;;;;;4951387;28;74509;-65
2021/03/25 10:07:11;;;;;;;;;;;17.90;37.50;;;;;;4952162;28;75713;-71
2021/03/25 10:09:48;;;;;;;;;;;18.00;37.90;;;;;;4952321;28;75273;-68
2021/03/25 10:12:34;;;;;;;;;;;18.30;37.60;;;;;;4952691;28;74714;-72
2021/03/25 10:14:59;;;;;;;;;;;18.60;37.10;;;;;;4952234;28;75341;-64
2021/03/25 10:17:46;;;;;;;;;;;18.80;36.70;;;;;;4952119;28;75138;-66
2021/03/25 10:20:32;;;;;;;;;;;19.00;35.70;;;;;;4950723;28;76369;-68
2021/03/25 10:22:57;;;;;;;;;;;19.00;36.30;;;;;;4951867;28;75367;-69
2021/03/25 10:25:26;;;;;;;;;;;19.40;35.80;;;;;;4952202;28;75053;-64
2021/03/25 10:27:57;;;;;;;;;;;19.60;35.50;;;;;;4950619;28;75514;-66
2021/03/25 10:30:25;;;;;;;;;;;19.90;35.40;;;;;;4951632;28;74949;-69
2021/03/25 10:32:52;;;;;;;;;;;20.30;34.80;;;;;;4952221;28;75054;-71
2021/03/25 10:35:20;;;;;;;;;;;20.60;34.00;;;;;;4951147;28;75121;-63
2021/03/25 10:37:47;;;;;;;;;;;20.90;33.40;;;;;;4951971;28;75638;-65
2021/03/25 10:40:18;;;;;;;;;;;21.10;33.40;;;;;;4952121;28;74463;-66
2021/03/25 10:42:52;;;;;;;;;;;21.50;33.20;;;;;;4951980;28;75179;-63
2021/03/25 10:45:27;;;;;;;;;;;21.80;32.50;;;;;;4950743;28;79153;-64
2021/03/25 10:48:01;;;;;;;;;;;22.20;32.20;;;;;;4951896;28;75420;-63
2021/03/25 10:50:53;;;;;;;;;;;22.70;31.70;;;;;;4952277;28;75313;-63
2021/03/25 10:53:24;;;;;;;;;;;23.10;30.90;;;;;;4952339;28;75036;-63
2021/03/25 10:55:51;;;;;;;;;;;23.60;30.50;;;;;;4952080;28;75209;-65
2021/03/25 10:58:25;;;;;;;;;;;23.90;29.80;;;;;;4951597;28;76542;-66
2021/03/25 11:01:00;;;;;;;;;;;24.40;29.10;;;;;;4951585;28;76304;-64
2021/03/25 11:03:31;;;;;;;;;;;24.70;28.60;;;;;;4951675;28;76769;-64
2021/03/25 11:05:57;;;;;;;;;;;25.10;28.00;;;;;;4951965;28;76274;-64
2021/03/25 11:08:30;;;;;;;;;;;25.30;28.20;;;;;;4951349;28;77516;-64
2021/03/25 11:10:57;;;;;;;;;;;25.90;27.80;;;;;;4951656;28;75760;-64
2021/03/25 11:13:25;;;;;;;;;;;26.60;27.00;;;;;;4951796;28;75234;-63
2021/03/25 11:15:58;;;;;;;;;;;27.40;26.20;;;;;;4951847;28;74416;-64
2021/03/25 11:18:30;;;;;;;;;;;27.90;25.40;;;;;;4952094;28;74431;-63
2021/03/25 11:20:56;;;;;;;;;;;28.60;24.80;;;;;;4951632;28;75110;-64
2021/03/25 11:23:23;;;;;;;;;;;29.40;23.60;;;;;;4949797;28;77056;-65
2021/03/25 11:26:09;;;;;;;;;;;30.20;23.90;;;;;;4951469;28;75391;-66
2021/03/25 11:28:37;;;;;;;;;;;31.10;22.90;;;;;;4951008;28;75209;-63
2021/03/25 11:31:23;;;;;;;;;;;32.10;22.10;;;;;;4951700;28;76766;-64
2021/03/25 11:33:50;;;;;;;;;;;33.00;21.00;;;;;;4951186;28;74958;-68
2021/03/25 11:36:31;;;;;;;;;;;34.00;20.50;;;;;;4949970;28;76995;-68
2021/03/25 11:39:07;;;;;;;;;;;34.90;19.90;;;;;;4951445;28;75028;-65
2021/03/25 11:41:33;;;;;;;;;;;35.20;17.90;;;;;;4951161;28;75191;-65
2021/03/25 11:44:01;;;;;;;;;;;34.90;18.00;;;;;;4950025;28;75503;-66
2021/03/25 11:46:28;;;;;;;;;;;35.20;18.90;;;;;;4951347;28;75136;-68
2021/03/25 11:49:00;;;;;;;;;;;35.90;18.20;;;;;;4951608;28;74429;-66
2021/03/25 11:51:26;;;;;;;;;;;36.60;16.30;;;;;;4951284;28;75278;-65
2021/03/25 11:53:52;;;;;;;;;;;36.90;17.40;;;;;;4951022;28;75757;-65
2021/03/25 11:56:20;;;;;;;;;;;36.80;16.10;;;;;;4950834;28;75350;-65
2021/03/25 11:58:51;;;;;;;;;;;36.20;17.50;;;;;;4949426;28;76492;-65
2021/03/25 12:01:24;;;;;;;;;;;36.50;16.50;;;;;;4949519;28;76674;-65
2021/03/25 12:03:55;;;;;;;;;;;37.10;17.00;;;;;;4949485;28;76223;-64
2021/03/25 12:06:22;;;;;;;;;;;38.20;16.40;;;;;;4951055;28;75624;-67
2021/03/25 12:09:03;;;;;;;;;;;39.20;16.00;;;;;;4951084;28;75123;-65
2021/03/25 12:11:32;;;;;;;;;;;39.10;14.90;;;;;;4951178;28;75542;-65
2021/03/25 12:13:58;;;;;;;;;;;37.50;15.60;;;;;;4950608;28;75158;-68
2021/03/25 12:16:23;;;;;;;;;;;34.70;18.20;;;;;;4950981;28;75348;-71
2021/03/25 12:18:49;;;;;;;;;;;32.90;19.40;;;;;;4950668;28;76223;-65
2021/03/25 12:21:14;;;;;;;;;;;31.90;20.50;;;;;;4951156;28;75500;-71
2021/03/25 12:23:43;;;;;;;;;;;32.30;19.50;;;;;;4950197;28;76966;-64
2021/03/25 12:26:12;;;;;;;;;;;33.40;18.80;;;;;;4949858;28;75408;-67
2021/03/25 12:28:38;;;;;;;;;;;34.30;18.00;;;;;;4950703;28;76608;-67
2021/03/25 12:31:04;;;;;;;;;;;33.30;18.50;;;;;;4951016;28;75358;-68
2021/03/25 12:33:31;;;;;;;;;;;31.40;19.70;;;;;;4949149;28;78076;-65
2021/03/25 12:35:57;;;;;;;;;;;29.80;21.00;;;;;;4950215;28;75375;-65
2021/03/25 12:38:23;;;;;;;;;;;29.00;21.90;;;;;;4950566;28;76270;-66
2021/03/25 12:40:49;;;;;;;;;;;29.70;21.60;;;;;;4950570;28;75061;-65
2021/03/25 12:43:16;;;;;;;;;;;31.20;20.20;;;;;;4950431;28;75442;-70
2021/03/25 12:45:43;;;;;;;;;;;31.60;18.70;;;;;;4950571;28;75266;-64
2021/03/25 12:48:09;;;;;;;;;;;31.00;19.10;;;;;;4948867;28;77230;-65
2021/03/25 12:50:35;;;;;;;;;;;30.00;19.20;;;;;;4950475;28;75094;-69
2021/03/25 12:53:01;;;;;;;;;;;29.50;18.20;;;;;;4950503;28;75119;-65
2021/03/25 12:55:27;;;;;;;;;;;29.10;18.40;;;;;;4950082;28;76378;-66
2021/03/25 12:57:54;;;;;;;;;;;28.10;19.00;;;;;;4950048;28;75037;-64
2021/03/25 13:00:26;;;;;;;;;;;27.40;19.50;;;;;;4949931;28;75263;-65
2021/03/25 13:02:52;;;;;;;;;;;27.60;20.80;;;;;;4950879;28;74436;-66
2021/03/25 13:05:20;;;;;;;;;;;29.30;19.10;;;;;;4950004;28;74378;-66
2021/03/25 13:07:45;;;;;;;;;;;31.00;17.60;;;;;;4950442;28;75209;-65
2021/03/25 13:10:11;;;;;;;;;;;31.10;17.30;;;;;;4949402;28;75221;-65
2021/03/25 13:12:37;;;;;;;;;;;31.40;17.40;;;;;;4949223;28;78125;-65
2021/03/25 13:15:03;;;;;;;;;;;33.10;16.60;;;;;;4949984;28;75096;-65
2021/03/25 13:17:28;;;;;;;;;;;35.40;14.20;;;;;;4949431;28;75405;-63
2021/03/25 13:19:57;;;;;;;;;;;38.00;14.20;;;;;;4949954;28;75170;-63
2021/03/25 13:22:24;;;;;;;;;;;39.60;13.00;;;;;;4948397;28;76932;-64
2021/03/25 13:24:50;;;;;;;;;;;40.10;12.60;;;;;;4950157;28;75143;-64
2021/03/25 13:27:16;;;;;;;;;;;40.20;11.30;;;;;;4950023;28;74542;-65
2021/03/25 13:29:41;;;;;;;;;;;38.70;12.40;;;;;;4950367;28;74971;-64
2021/03/25 13:32:07;;;;;;;;;;;36.30;12.20;;;;;;4950270;28;74414;-65
2021/03/25 13:34:33;;;;;;;;;;;33.50;14.40;;;;;;4949803;28;74568;-64
2021/03/25 13:36:59;;;;;;;;;;;31.80;14.90;;;;;;4949440;28;76456;-63
2021/03/25 13:39:25;;;;;;;;;;;31.00;15.20;;;;;;4949374;28;76437;-63
2021/03/25 13:41:51;;;;;;;;;;;31.40;14.40;;;;;;4948911;28;75105;-64
2021/03/25 13:44:16;;;;;;;;;;;32.20;14.40;;;;;;4949749;28;75049;-64
2021/03/25 13:46:42;;;;;;;;;;;34.60;13.30;;;;;;4949345;28;75184;-66
2021/03/25 13:49:07;;;;;;;;;;;37.10;11.70;;;;;;4949377;28;76352;-66
2021/03/25 13:51:33;;;;;;;;;;;37.80;11.90;;;;;;4949144;28;76354;-66
2021/03/25 13:53:58;;;;;;;;;;;36.70;11.80;;;;;;4949552;28;75185;-64
2021/03/25 13:56:24;;;;;;;;;;;35.40;13.10;;;;;;4949334;28;74509;-66
2021/03/25 13:58:50;;;;;;;;;;;34.90;13.10;;;;;;4948920;28;75134;-65
2021/03/25 14:01:15;;;;;;;;;;;35.70;12.90;;;;;;4949718;28;74494;-70
2021/03/25 14:03:41;;;;;;;;;;;37.50;12.40;;;;;;4949314;28;74942;-67
2021/03/25 14:06:06;;;;;;;;;;;39.40;12.20;;;;;;4949219;28;75713;-66
2021/03/25 14:08:32;;;;;;;;;;;39.40;11.10;;;;;;4948077;28;75742;-68
2021/03/25 14:10:57;;;;;;;;;;;38.10;11.10;;;;;;4951028;28;74426;-64
2021/03/25 14:13:23;;;;;;;;;;;35.60;12.10;;;;;;4951071;28;76598;-65
2021/03/25 14:15:50;;;;;;;;;;;34.50;12.90;;;;;;4952644;28;75161;-64
2021/03/25 14:18:17;;;;;;;;;;;35.30;12.70;;;;;;4952563;28;75267;-65
2021/03/25 14:20:43;;;;;;;;;;;36.80;12.40;;;;;;4950775;28;76448;-64
2021/03/25 14:23:09;;;;;;;;;;;39.00;10.60;;;;;;4951113;28;75128;-64
2021/03/25 14:25:38;;;;;;;;;;;40.00;10.50;;;;;;4950754;28;76496;-66
2021/03/25 14:28:04;;;;;;;;;;;40.90;9.20;;;;;;4952773;28;76785;-64
2021/03/25 14:30:30;;;;;;;;;;;40.70;9.20;;;;;;4952109;28;74722;-65
2021/03/25 14:32:56;;;;;;;;;;;41.10;9.80;;;;;;4952758;28;75643;-64
2021/03/25 14:35:23;;;;;;;;;;;41.50;9.80;;;;;;4952425;28;75186;-64
2021/03/25 14:37:48;;;;;;;;;;;42.20;9.90;;;;;;4952419;28;75040;-64
2021/03/25 14:40:15;;;;;;;;;;;41.40;9.00;;;;;;4952764;28;74626;-67
2021/03/25 14:42:41;;;;;;;;;;;39.50;10.20;;;;;;4952216;28;75821;-66